sensor_id;sensor_type;location;lat;lon;timestamp;pressure;altitude;pressure_sealevel;temperature;humidity
28344;BME280;15597;50.914;6.638;2022-10-18T00:01:14;101756.06;;;21.00;60.31
28344;BME280;15597;50.914;6.638;2022-10-18T00:03:40;101757.78;;;21.01;60.21
28344;BME280;15597;50.914;6.638;2022-10-18T00:06:06;101761.41;;;21.00;60.60
28344;BME280;15597;50.914;6.638;2022-10-18T00:08:35;101748.00;;;21.02;60.44
28344;BME280;15597;50.914;6.638;2022-10-18T00:11:01;101753.31;;;21.02;60.69
28344;BME280;15597;50.914;6.638;2022-10-18T00:13:26;101746.28;;;21.01;60.73
28344;BME280;15597;50.914;6.638;2022-10-18T00:15:56;101748.09;;;21.00;60.62
28344;BME280;15597;50.914;6.638;2022-10-18T00:18:22;101746.28;;;21.01;60.39
28344;BME280;15597;50.914;6.638;2022-10-18T00:23:23;101743.84;;;20.96;59.83
28344;BME280;15597;50.914;6.638;2022-10-18T00:25:56;101744.69;;;20.97;60.02
28344;BME280;15597;50.914;6.638;2022-10-18T00:28:22;101736.81;;;20.95;59.67
28344;BME280;15597;50.914;6.638;2022-10-18T00:30:47;101739.38;;;20.97;60.18
28344;BME280;15597;50.914;6.638;2022-10-18T00:33:13;101730.59;;;20.95;59.86
28344;BME280;15597;50.914;6.638;2022-10-18T00:35:38;101737.66;;;20.96;59.86
28344;BME280;15597;50.914;6.638;2022-10-18T00:38:04;101733.13;;;20.98;59.49
28344;BME280;15597;50.914;6.638;2022-10-18T00:40:29;101740.31;;;20.96;59.16
28344;BME280;15597;50.914;6.638;2022-10-18T00:42:55;101737.78;;;20.93;59.07
28344;BME280;15597;50.914;6.638;2022-10-18T00:45:23;101744.97;;;20.91;59.65
28344;BME280;15597;50.914;6.638;2022-10-18T00:47:54;101732.75;;;20.86;59.88
28344;BME280;15597;50.914;6.638;2022-10-18T00:50:20;101736.94;;;20.92;59.85
28344;BME280;15597;50.914;6.638;2022-10-18T00:52:52;101736.06;;;20.92;59.44
28344;BME280;15597;50.914;6.638;2022-10-18T00:55:18;101739.53;;;20.94;59.58
28344;BME280;15597;50.914;6.638;2022-10-18T00:57:44;101735.13;;;20.93;59.67
28344;BME280;15597;50.914;6.638;2022-10-18T01:00:11;101731.53;;;20.94;59.58
28344;BME280;15597;50.914;6.638;2022-10-18T01:02:40;101730.59;;;20.95;59.82
28344;BME280;15597;50.914;6.638;2022-10-18T01:05:06;101736.72;;;20.97;59.11
28344;BME280;15597;50.914;6.638;2022-10-18T01:08:00;101734.34;;;20.91;59.08
28344;BME280;15597;50.914;6.638;2022-10-18T01:13:42;101723.16;;;20.84;58.78
28344;BME280;15597;50.914;6.638;2022-10-18T01:25:02;101731.22;;;20.62;59.09
28344;BME280;15597;50.914;6.638;2022-10-18T01:32:55;101731.56;;;20.73;59.79
28344;BME280;15597;50.914;6.638;2022-10-18T01:35:30;101735.16;;;20.72;58.98
28344;BME280;15597;50.914;6.638;2022-10-18T01:38:01;101735.16;;;20.72;59.14
28344;BME280;15597;50.914;6.638;2022-10-18T01:40:29;101735.16;;;20.72;59.26
28344;BME280;15597;50.914;6.638;2022-10-18T01:42:55;101741.28;;;20.74;59.69
28344;BME280;15597;50.914;6.638;2022-10-18T01:45:22;101744.16;;;20.69;60.00
28344;BME280;15597;50.914;6.638;2022-10-18T01:47:48;101734.25;;;20.73;60.35
28344;BME280;15597;50.914;6.638;2022-10-18T01:50:26;101737.03;;;20.70;60.20
28344;BME280;15597;50.914;6.638;2022-10-18T01:52:53;101734.97;;;20.77;60.08
28344;BME280;15597;50.914;6.638;2022-10-18T01:55:25;101737.69;;;20.75;59.94
28344;BME280;15597;50.914;6.638;2022-10-18T01:57:58;101730.38;;;20.80;59.89
28344;BME280;15597;50.914;6.638;2022-10-18T02:00:37;101731.44;;;20.76;60.04
28344;BME280;15597;50.914;6.638;2022-10-18T02:05:42;101727.59;;;20.83;60.66
28344;BME280;15597;50.914;6.638;2022-10-18T02:11:09;101718.09;;;20.78;59.94
28344;BME280;15597;50.914;6.638;2022-10-18T02:13:44;101724.13;;;20.81;59.23
28344;BME280;15597;50.914;6.638;2022-10-18T02:16:18;101722.25;;;20.83;59.72
28344;BME280;15597;50.914;6.638;2022-10-18T02:18:49;101725.06;;;20.80;59.62
28344;BME280;15597;50.914;6.638;2022-10-18T02:21:20;101730.03;;;20.88;59.38
28344;BME280;15597;50.914;6.638;2022-10-18T02:23:46;101733.59;;;20.68;59.93
28344;BME280;15597;50.914;6.638;2022-10-18T02:26:13;101726.00;;;20.79;60.45
28344;BME280;15597;50.914;6.638;2022-10-18T02:28:40;101743.25;;;20.90;60.59
28344;BME280;15597;50.914;6.638;2022-10-18T02:33:52;101740.53;;;20.91;60.63
28344;BME280;15597;50.914;6.638;2022-10-18T02:36:36;101744.84;;;20.94;60.08
28344;BME280;15597;50.914;6.638;2022-10-18T02:39:11;101736.84;;;20.94;59.91
28344;BME280;15597;50.914;6.638;2022-10-18T02:41:41;101737.59;;;20.97;60.35
28344;BME280;15597;50.914;6.638;2022-10-18T02:44:08;101748.00;;;21.02;60.33
28344;BME280;15597;50.914;6.638;2022-10-18T02:46:34;101735.78;;;20.98;59.88
28344;BME280;15597;50.914;6.638;2022-10-18T02:49:00;101740.16;;;20.99;59.45
28344;BME280;15597;50.914;6.638;2022-10-18T02:51:25;101737.66;;;20.96;59.86
28344;BME280;15597;50.914;6.638;2022-10-18T02:53:51;101744.69;;;20.97;59.86
28344;BME280;15597;50.914;6.638;2022-10-18T02:56:16;101740.25;;;20.97;59.96
28344;BME280;15597;50.914;6.638;2022-10-18T02:58:42;101734.94;;;20.97;60.75
28344;BME280;15597;50.914;6.638;2022-10-18T03:01:07;101741.09;;;20.98;59.99
28344;BME280;15597;50.914;6.638;2022-10-18T03:03:33;101740.25;;;20.97;59.90
28344;BME280;15597;50.914;6.638;2022-10-18T03:05:59;101747.28;;;20.98;60.18
28344;BME280;15597;50.914;6.638;2022-10-18T03:08:24;101739.38;;;20.97;60.39
28344;BME280;15597;50.914;6.638;2022-10-18T03:10:50;101736.66;;;20.98;60.26
28344;BME280;15597;50.914;6.638;2022-10-18T03:13:16;101732.19;;;20.99;60.07
28344;BME280;15597;50.914;6.638;2022-10-18T03:15:42;101736.56;;;21.00;59.85
28344;BME280;15597;50.914;6.638;2022-10-18T03:18:08;101729.53;;;20.99;59.81
28344;BME280;15597;50.914;6.638;2022-10-18T03:20:33;101738.28;;;21.01;59.94
28344;BME280;15597;50.914;6.638;2022-10-18T03:22:59;101735.63;;;21.01;60.01
28344;BME280;15597;50.914;6.638;2022-10-18T03:25:25;101726.00;;;20.98;60.22
28344;BME280;15597;50.914;6.638;2022-10-18T03:27:50;101726.84;;;20.99;60.32
28344;BME280;15597;50.914;6.638;2022-10-18T03:30:16;101722.41;;;20.99;60.28
28344;BME280;15597;50.914;6.638;2022-10-18T03:32:42;101720.69;;;20.98;60.35
28344;BME280;15597;50.914;6.638;2022-10-18T03:35:08;101724.06;;;21.02;59.94
28344;BME280;15597;50.914;6.638;2022-10-18T03:37:35;101711.69;;;21.01;59.46
28344;BME280;15597;50.914;6.638;2022-10-18T03:40:01;101716.06;;;21.02;60.06
28344;BME280;15597;50.914;6.638;2022-10-18T03:42:27;101710.84;;;21.00;60.17
28344;BME280;15597;50.914;6.638;2022-10-18T03:44:52;101710.91;;;20.99;60.05
28344;BME280;15597;50.914;6.638;2022-10-18T03:47:18;101727.50;;;21.04;60.38
28344;BME280;15597;50.914;6.638;2022-10-18T03:49:43;101717.94;;;21.00;60.37
28344;BME280;15597;50.914;6.638;2022-10-18T03:52:09;101716.06;;;21.02;60.05
28344;BME280;15597;50.914;6.638;2022-10-18T03:54:34;101712.63;;;21.00;60.05
28344;BME280;15597;50.914;6.638;2022-10-18T03:57:00;101716.22;;;20.99;60.16
28344;BME280;15597;50.914;6.638;2022-10-18T03:59:27;101720.59;;;21.00;60.42
28344;BME280;15597;50.914;6.638;2022-10-18T04:01:52;101720.59;;;21.00;60.38
28344;BME280;15597;50.914;6.638;2022-10-18T04:04:21;101730.31;;;21.01;60.62
28344;BME280;15597;50.914;6.638;2022-10-18T04:06:47;101726.84;;;20.99;60.21
28344;BME280;15597;50.914;6.638;2022-10-18T04:09:12;101724.28;;;20.97;60.38
28344;BME280;15597;50.914;6.638;2022-10-18T04:11:38;101733.13;;;20.98;60.56
28344;BME280;15597;50.914;6.638;2022-10-18T04:14:03;101739.47;;;20.95;60.67
28344;BME280;15597;50.914;6.638;2022-10-18T04:16:29;101746.56;;;20.95;60.29
28344;BME280;15597;50.914;6.638;2022-10-18T04:18:54;101743.91;;;20.95;60.55
28344;BME280;15597;50.914;6.638;2022-10-18T04:21:20;101738.72;;;20.92;60.84
28344;BME280;15597;50.914;6.638;2022-10-18T04:23:46;101739.59;;;20.92;60.92
28344;BME280;15597;50.914;6.638;2022-10-18T04:26:13;101743.25;;;20.90;60.48
28344;BME280;15597;50.914;6.638;2022-10-18T04:28:38;101738.72;;;20.92;60.82
28344;BME280;15597;50.914;6.638;2022-10-18T04:31:05;101744.06;;;20.92;60.94
28344;BME280;15597;50.914;6.638;2022-10-18T04:33:31;101743.25;;;20.90;61.04
28344;BME280;15597;50.914;6.638;2022-10-18T04:35:56;101736.22;;;20.89;60.32
28344;BME280;15597;50.914;6.638;2022-10-18T04:38:22;101735.50;;;20.85;59.98
28344;BME280;15597;50.914;6.638;2022-10-18T04:40:48;101731.97;;;20.84;60.58
28344;BME280;15597;50.914;6.638;2022-10-18T04:43:14;101740.09;;;20.81;60.67
28344;BME280;15597;50.914;6.638;2022-10-18T04:45:40;101748.03;;;20.83;60.45
28344;BME280;15597;50.914;6.638;2022-10-18T04:48:06;101747.38;;;20.76;59.97
28344;BME280;15597;50.914;6.638;2022-10-18T04:50:31;101752.06;;;20.71;60.01
28344;BME280;15597;50.914;6.638;2022-10-18T04:52:57;101740.78;;;20.66;59.60
28344;BME280;15597;50.914;6.638;2022-10-18T04:55:22;101749.69;;;20.65;60.09
28344;BME280;15597;50.914;6.638;2022-10-18T04:57:48;101754.13;;;20.64;59.86
28344;BME280;15597;50.914;6.638;2022-10-18T05:00:14;101764.72;;;20.66;59.65
28344;BME280;15597;50.914;6.638;2022-10-18T05:02:39;101765.78;;;20.62;59.54
28344;BME280;15597;50.914;6.638;2022-10-18T05:05:05;101750.81;;;20.59;59.18
28344;BME280;15597;50.914;6.638;2022-10-18T05:07:31;101748.25;;;20.57;59.40
28344;BME280;15597;50.914;6.638;2022-10-18T05:09:56;101757.94;;;20.58;59.09
28344;BME280;15597;50.914;6.638;2022-10-18T05:12:22;101755.41;;;20.55;58.89
28344;BME280;15597;50.914;6.638;2022-10-18T05:14:47;101746.66;;;20.53;58.99
28344;BME280;15597;50.914;6.638;2022-10-18T05:17:13;101764.19;;;20.57;59.02
28344;BME280;15597;50.914;6.638;2022-10-18T05:19:39;101758.88;;;20.57;59.82
28344;BME280;15597;50.914;6.638;2022-10-18T05:22:04;101764.97;;;20.60;59.80
28344;BME280;15597;50.914;6.638;2022-10-18T05:24:30;101751.69;;;20.60;59.07
28344;BME280;15597;50.914;6.638;2022-10-18T05:26:56;101754.34;;;20.60;58.99
28344;BME280;15597;50.914;6.638;2022-10-18T05:29:21;101753.41;;;20.61;59.53
28344;BME280;15597;50.914;6.638;2022-10-18T05:31:48;101759.53;;;20.63;59.60
28344;BME280;15597;50.914;6.638;2022-10-18T05:34:13;101767.38;;;20.66;59.30
28344;BME280;15597;50.914;6.638;2022-10-18T05:36:42;101766.56;;;20.64;59.33
28344;BME280;15597;50.914;6.638;2022-10-18T05:39:08;101764.84;;;20.63;59.71
28344;BME280;15597;50.914;6.638;2022-10-18T05:41:34;101779.72;;;20.67;60.52
28344;BME280;15597;50.914;6.638;2022-10-18T05:44:04;101774.41;;;20.67;60.73
28344;BME280;15597;50.914;6.638;2022-10-18T05:46:30;101781.25;;;20.72;60.49
28344;BME280;15597;50.914;6.638;2022-10-18T05:48:55;101785.66;;;20.73;60.93
28344;BME280;15597;50.914;6.638;2022-10-18T05:51:21;101769.84;;;20.70;60.12
28344;BME280;15597;50.914;6.638;2022-10-18T05:53:46;101773.41;;;20.69;59.76
28344;BME280;15597;50.914;6.638;2022-10-18T05:56:12;101769.88;;;20.69;59.59
28344;BME280;15597;50.914;6.638;2022-10-18T05:58:39;101759.44;;;20.64;59.25
28344;BME280;15597;50.914;6.638;2022-10-18T06:01:05;101763.03;;;20.63;59.90
28344;BME280;15597;50.914;6.638;2022-10-18T06:03:32;101769.22;;;20.64;60.34
28344;BME280;15597;50.914;6.638;2022-10-18T06:05:59;101769.16;;;20.65;60.66
28344;BME280;15597;50.914;6.638;2022-10-18T06:08:24;101774.28;;;20.70;60.95
28344;BME280;15597;50.914;6.638;2022-10-18T06:10:50;101771.56;;;20.71;60.57
28344;BME280;15597;50.914;6.638;2022-10-18T06:13:15;101762.78;;;20.69;59.75
28344;BME280;15597;50.914;6.638;2022-10-18T06:15:41;101770.81;;;20.68;59.56
28344;BME280;15597;50.914;6.638;2022-10-18T06:18:06;101768.16;;;20.68;59.85
28344;BME280;15597;50.914;6.638;2022-10-18T06:20:32;101765.50;;;20.68;60.00
28344;BME280;15597;50.914;6.638;2022-10-18T06:22:57;101773.28;;;20.72;60.40
28344;BME280;15597;50.914;6.638;2022-10-18T06:25:23;101766.25;;;20.71;60.60
28344;BME280;15597;50.914;6.638;2022-10-18T06:27:48;101776.75;;;20.75;60.33
28344;BME280;15597;50.914;6.638;2022-10-18T06:30:14;101766.94;;;20.75;60.75
28344;BME280;15597;50.914;6.638;2022-10-18T06:32:39;101766.84;;;20.78;61.15
28344;BME280;15597;50.914;6.638;2022-10-18T06:35:05;101767.63;;;20.80;60.97
28344;BME280;15597;50.914;6.638;2022-10-18T06:37:31;101777.28;;;20.83;61.39
28344;BME280;15597;50.914;6.638;2022-10-18T06:39:57;101777.13;;;20.86;61.59
28344;BME280;15597;50.914;6.638;2022-10-18T06:42:22;101775.31;;;20.86;61.47
28344;BME280;15597;50.914;6.638;2022-10-18T06:44:48;101780.66;;;20.86;61.11
28344;BME280;15597;50.914;6.638;2022-10-18T06:47:14;101794.75;;;20.89;61.22
28344;BME280;15597;50.914;6.638;2022-10-18T06:49:39;101806.25;;;20.89;61.40
28344;BME280;15597;50.914;6.638;2022-10-18T06:52:05;101807.09;;;20.90;61.83
28344;BME280;15597;50.914;6.638;2022-10-18T06:54:32;101800.06;;;20.89;61.05
28344;BME280;15597;50.914;6.638;2022-10-18T06:56:57;101803.66;;;20.87;60.41
28344;BME280;15597;50.914;6.638;2022-10-18T06:59:23;101805.53;;;20.85;59.95
28344;BME280;15597;50.914;6.638;2022-10-18T07:01:49;101803.78;;;20.84;59.66
28344;BME280;15597;50.914;6.638;2022-10-18T07:04:14;101810.97;;;20.82;60.35
28344;BME280;15597;50.914;6.638;2022-10-18T07:06:40;101813.63;;;20.82;59.79
28344;BME280;15597;50.914;6.638;2022-10-18T07:09:06;101820.91;;;20.79;60.03
28344;BME280;15597;50.914;6.638;2022-10-18T07:11:31;101829.78;;;20.78;60.25
28344;BME280;15597;50.914;6.638;2022-10-18T07:14:01;101829.06;;;20.74;60.16
28344;BME280;15597;50.914;6.638;2022-10-18T07:16:28;101828.91;;;20.77;60.51
28344;BME280;15597;50.914;6.638;2022-10-18T07:18:54;101825.34;;;20.78;59.86
28344;BME280;15597;50.914;6.638;2022-10-18T07:21:21;101834.22;;;20.77;59.88
28344;BME280;15597;50.914;6.638;2022-10-18T07:23:48;101834.22;;;20.77;60.54
28344;BME280;15597;50.914;6.638;2022-10-18T07:26:20;101844.84;;;20.79;60.57
28344;BME280;15597;50.914;6.638;2022-10-18T07:28:48;101849.94;;;20.83;60.58
28344;BME280;15597;50.914;6.638;2022-10-18T07:31:14;101847.22;;;20.85;60.88
28344;BME280;15597;50.914;6.638;2022-10-18T07:33:40;101843.63;;;20.86;60.99
28344;BME280;15597;50.914;6.638;2022-10-18T07:36:08;101848.81;;;20.89;60.81
28344;BME280;15597;50.914;6.638;2022-10-18T07:38:34;101849.66;;;20.90;61.59
28344;BME280;15597;50.914;6.638;2022-10-18T07:41:01;101856.72;;;20.91;61.21
28344;BME280;15597;50.914;6.638;2022-10-18T07:43:28;101860.31;;;20.90;60.67
28344;BME280;15597;50.914;6.638;2022-10-18T07:45:57;101871.97;;;20.87;60.23
28344;BME280;15597;50.914;6.638;2022-10-18T07:48:23;101872.81;;;20.87;59.70
28344;BME280;15597;50.914;6.638;2022-10-18T07:50:50;101874.69;;;20.85;60.11
28344;BME280;15597;50.914;6.638;2022-10-18T07:53:15;101885.31;;;20.85;59.71
28344;BME280;15597;50.914;6.638;2022-10-18T07:55:41;101882.66;;;20.85;59.84
28344;BME280;15597;50.914;6.638;2022-10-18T07:58:07;101886.25;;;20.84;60.39
28344;BME280;15597;50.914;6.638;2022-10-18T08:00:33;101891.56;;;20.84;59.99
28344;BME280;15597;50.914;6.638;2022-10-18T08:02:58;101885.31;;;20.85;60.62
28344;BME280;15597;50.914;6.638;2022-10-18T08:05:25;101878.41;;;20.81;60.13
28344;BME280;15597;50.914;6.638;2022-10-18T08:07:52;101883.72;;;20.81;60.97
28344;BME280;15597;50.914;6.638;2022-10-18T08:10:18;101881.88;;;20.83;61.10
28344;BME280;15597;50.914;6.638;2022-10-18T08:12:44;101889.94;;;20.82;61.13
28344;BME280;15597;50.914;6.638;2022-10-18T08:15:10;101892.59;;;20.82;60.52
28344;BME280;15597;50.914;6.638;2022-10-18T08:17:36;101896.22;;;20.79;60.83
28344;BME280;15597;50.914;6.638;2022-10-18T08:20:03;101901.66;;;20.76;60.09
28344;BME280;15597;50.914;6.638;2022-10-18T08:22:29;101897.41;;;20.72;60.78
28344;BME280;15597;50.914;6.638;2022-10-18T08:24:54;101895.00;;;20.66;60.50
28344;BME280;15597;50.914;6.638;2022-10-18T08:27:20;101889.75;;;20.64;61.21
28344;BME280;15597;50.914;6.638;2022-10-18T08:29:45;101895.00;;;20.66;61.43
28344;BME280;15597;50.914;6.638;2022-10-18T08:32:12;101906.56;;;20.65;61.11
28344;BME280;15597;50.914;6.638;2022-10-18T08:34:37;101904.84;;;20.64;61.44
28344;BME280;15597;50.914;6.638;2022-10-18T08:37:03;101908.31;;;20.66;61.87
28344;BME280;15597;50.914;6.638;2022-10-18T08:39:29;101911.09;;;20.63;62.00
28344;BME280;15597;50.914;6.638;2022-10-18T08:42:29;101911.53;;;20.52;61.85
28344;BME280;15597;50.914;6.638;2022-10-18T08:45:00;101916.69;;;20.56;61.41
28344;BME280;15597;50.914;6.638;2022-10-18T08:50:04;101931.75;;;20.56;62.03
28344;BME280;15597;50.914;6.638;2022-10-18T08:58:03;101926.56;;;20.53;61.63
28344;BME280;15597;50.914;6.638;2022-10-18T09:00:33;101931.16;;;20.49;61.75
28344;BME280;15597;50.914;6.638;2022-10-18T09:08:35;101926.09;;;20.43;60.43
28344;BME280;15597;50.914;6.638;2022-10-18T09:11:11;101926.25;;;20.40;60.40
28344;BME280;15597;50.914;6.638;2022-10-18T09:16:14;101934.09;;;20.43;61.57
28344;BME280;15597;50.914;6.638;2022-10-18T09:19:07;101925.97;;;20.46;61.11
28344;BME280;15597;50.914;6.638;2022-10-18T09:21:48;101939.44;;;20.41;61.96
28344;BME280;15597;50.914;6.638;2022-10-18T09:24:26;101936.06;;;20.38;60.62
28344;BME280;15597;50.914;6.638;2022-10-18T09:27:04;101934.34;;;20.37;60.55
28344;BME280;15597;50.914;6.638;2022-10-18T09:35:12;101940.59;;;20.36;60.87
28344;BME280;15597;50.914;6.638;2022-10-18T09:37:38;101952.69;;;20.43;60.42
28344;BME280;15597;50.914;6.638;2022-10-18T09:40:17;101948.56;;;20.36;61.17
28344;BME280;15597;50.914;6.638;2022-10-18T09:42:52;101944.03;;;20.38;61.15
28344;BME280;15597;50.914;6.638;2022-10-18T09:45:26;101944.03;;;20.38;60.51
28344;BME280;15597;50.914;6.638;2022-10-18T09:48:00;101951.94;;;20.39;60.29
28344;BME280;15597;50.914;6.638;2022-10-18T09:55:57;101956.16;;;20.45;61.12
28344;BME280;15597;50.914;6.638;2022-10-18T10:00:54;101954.63;;;20.60;61.27
28344;BME280;15597;50.914;6.638;2022-10-18T10:03:19;101962.16;;;20.71;61.40
28344;BME280;15597;50.914;6.638;2022-10-18T10:05:45;101964.56;;;20.77;60.58
28344;BME280;15597;50.914;6.638;2022-10-18T10:08:11;101959.94;;;20.82;60.90
28344;BME280;15597;50.914;6.638;2022-10-18T10:10:45;101960.06;;;20.79;60.42
28344;BME280;15597;50.914;6.638;2022-10-18T10:13:17;101966.13;;;20.83;60.18
28344;BME280;15597;50.914;6.638;2022-10-18T10:15:59;101971.47;;;20.83;60.85
28344;BME280;15597;50.914;6.638;2022-10-18T10:18:28;101976.44;;;20.91;60.22
28344;BME280;15597;50.914;6.638;2022-10-18T10:20:57;101973.63;;;20.94;60.68
28344;BME280;15597;50.914;6.638;2022-10-18T10:23:31;101980.69;;;20.95;59.83
28344;BME280;15597;50.914;6.638;2022-10-18T10:26:00;101980.56;;;20.98;59.61
28344;BME280;15597;50.914;6.638;2022-10-18T10:28:32;101980.56;;;20.98;60.22
28344;BME280;15597;50.914;6.638;2022-10-18T10:36:46;101994.66;;;21.00;60.85
28344;BME280;15597;50.914;6.638;2022-10-18T10:39:13;101992.66;;;21.05;60.69
28344;BME280;15597;50.914;6.638;2022-10-18T10:41:46;101993.69;;;21.02;59.54
28344;BME280;15597;50.914;6.638;2022-10-18T10:44:15;101992.13;;;20.97;59.05
28344;BME280;15597;50.914;6.638;2022-10-18T10:46:41;101994.06;;;20.93;60.10
28344;BME280;15597;50.914;6.638;2022-10-18T10:49:24;101989.88;;;20.87;60.97
28344;BME280;15597;50.914;6.638;2022-10-18T10:51:57;101991.31;;;20.95;61.69
28344;BME280;15597;50.914;6.638;2022-10-18T10:54:26;101988.75;;;20.93;60.00
28344;BME280;15597;50.914;6.638;2022-10-18T10:59:43;101979.63;;;20.78;60.19
28344;BME280;15597;50.914;6.638;2022-10-18T11:04:38;101989.69;;;20.92;61.29
28344;BME280;15597;50.914;6.638;2022-10-18T11:09:44;101994.78;;;20.97;61.91
28344;BME280;15597;50.914;6.638;2022-10-18T11:12:19;101997.25;;;21.01;60.58
28344;BME280;15597;50.914;6.638;2022-10-18T11:14:53;101996.13;;;21.07;61.42
28344;BME280;15597;50.914;6.638;2022-10-18T11:17:26;101995.97;;;21.10;61.58
28344;BME280;15597;50.914;6.638;2022-10-18T11:22:39;102000.63;;;21.05;60.42
28344;BME280;15597;50.914;6.638;2022-10-18T11:25:07;101991.72;;;21.06;60.29
28344;BME280;15597;50.914;6.638;2022-10-18T11:27:40;101992.66;;;21.05;60.75
28344;BME280;15597;50.914;6.638;2022-10-18T11:40:49;101973.38;;;21.00;60.22
28344;BME280;15597;50.914;6.638;2022-10-18T11:43:29;101986.63;;;21.01;59.13
28344;BME280;15597;50.914;6.638;2022-10-18T11:46:17;101982.41;;;20.96;59.05
28344;BME280;15597;50.914;6.638;2022-10-18T11:57:16;101971.91;;;21.13;60.36
28344;BME280;15597;50.914;6.638;2022-10-18T12:03:14;101973.44;;;21.19;59.99
28344;BME280;15597;50.914;6.638;2022-10-18T12:05:46;101973.38;;;21.21;58.61
28344;BME280;15597;50.914;6.638;2022-10-18T12:08:15;101973.44;;;21.19;59.16
28344;BME280;15597;50.914;6.638;2022-10-18T12:10:47;101971.63;;;21.20;60.47
28344;BME280;15597;50.914;6.638;2022-10-18T12:13:22;101966.09;;;21.24;60.08
28344;BME280;15597;50.914;6.638;2022-10-18T12:15:52;101956.06;;;21.31;59.75
28344;BME280;15597;50.914;6.638;2022-10-18T12:18:20;101959.38;;;21.36;59.67
28344;BME280;15597;50.914;6.638;2022-10-18T12:20:50;101965.28;;;21.43;59.38
28344;BME280;15597;50.914;6.638;2022-10-18T12:23:55;101960.88;;;21.42;59.96
28344;BME280;15597;50.914;6.638;2022-10-18T12:26:24;101962.28;;;21.51;59.23
28344;BME280;15597;50.914;6.638;2022-10-18T12:28:59;101960.69;;;21.47;58.66
28344;BME280;15597;50.914;6.638;2022-10-18T12:31:36;101959.09;;;21.42;58.91
28344;BME280;15597;50.914;6.638;2022-10-18T12:36:53;101952.03;;;21.41;58.45
28344;BME280;15597;50.914;6.638;2022-10-18T12:39:42;101950.47;;;21.37;58.33
28344;BME280;15597;50.914;6.638;2022-10-18T12:42:20;101949.28;;;21.24;57.88
28344;BME280;15597;50.914;6.638;2022-10-18T12:44:48;101951.16;;;21.22;57.42
28344;BME280;15597;50.914;6.638;2022-10-18T12:47:21;101953.28;;;21.13;58.13
28344;BME280;15597;50.914;6.638;2022-10-18T12:49:58;101957.75;;;21.13;58.29
28344;BME280;15597;50.914;6.638;2022-10-18T12:52:26;101962.75;;;21.21;59.04
28344;BME280;15597;50.914;6.638;2022-10-18T13:24:38;101945.00;;;21.59;58.73
28344;BME280;15597;50.914;6.638;2022-10-18T13:30:32;101951.94;;;21.83;59.65
28344;BME280;15597;50.914;6.638;2022-10-18T13:33:18;101949.13;;;22.05;59.26
28344;BME280;15597;50.914;6.638;2022-10-18T13:35:58;101951.72;;;22.24;59.33
28344;BME280;15597;50.914;6.638;2022-10-18T13:38:46;101953.06;;;22.52;59.65
28344;BME280;15597;50.914;6.638;2022-10-18T13:41:24;101947.56;;;22.73;58.20
28344;BME280;15597;50.914;6.638;2022-10-18T13:52:05;101949.97;;;23.30;57.03
28344;BME280;15597;50.914;6.638;2022-10-18T14:06:18;101952.88;;;23.75;54.79
28344;BME280;15597;50.914;6.638;2022-10-18T14:09:13;101953.06;;;23.88;54.98
28344;BME280;15597;50.914;6.638;2022-10-18T14:19:28;101951.09;;;24.39;53.34
28344;BME280;15597;50.914;6.638;2022-10-18T14:22:06;101951.00;;;24.56;52.69
28344;BME280;15597;50.914;6.638;2022-10-18T14:24:38;101943.94;;;24.70;52.36
28344;BME280;15597;50.914;6.638;2022-10-18T14:27:18;101953.38;;;24.91;51.84
28344;BME280;15597;50.914;6.638;2022-10-18T14:29:44;101954.94;;;25.24;51.04
28344;BME280;15597;50.914;6.638;2022-10-18T14:32:27;101948.78;;;25.37;51.19
28344;BME280;15597;50.914;6.638;2022-10-18T14:34:55;101958.66;;;25.65;50.04
28344;BME280;15597;50.914;6.638;2022-10-18T14:37:33;101964.91;;;25.66;49.23
28344;BME280;15597;50.914;6.638;2022-10-18T14:39:59;101958.00;;;25.62;48.99
28344;BME280;15597;50.914;6.638;2022-10-18T14:42:26;101957.28;;;25.45;47.84
28344;BME280;15597;50.914;6.638;2022-10-18T14:44:52;101951.28;;;25.26;48.28
28344;BME280;15597;50.914;6.638;2022-10-18T14:47:23;101956.25;;;25.03;48.58
28344;BME280;15597;50.914;6.638;2022-10-18T14:49:50;101961.16;;;24.96;48.91
28344;BME280;15597;50.914;6.638;2022-10-18T14:52:29;101952.75;;;24.72;49.05
28344;BME280;15597;50.914;6.638;2022-10-18T14:54:57;101954.66;;;24.70;48.62
28344;BME280;15597;50.914;6.638;2022-10-18T14:57:28;101957.47;;;24.52;48.60
28344;BME280;15597;50.914;6.638;2022-10-18T14:59:57;101955.09;;;24.31;48.36
28344;BME280;15597;50.914;6.638;2022-10-18T15:02:28;101958.41;;;24.04;48.58
28344;BME280;15597;50.914;6.638;2022-10-18T15:04:57;101961.50;;;23.81;48.80
28344;BME280;15597;50.914;6.638;2022-10-18T15:07:23;101956.63;;;23.55;49.25
28344;BME280;15597;50.914;6.638;2022-10-18T15:09:50;101961.19;;;23.37;49.81
28344;BME280;15597;50.914;6.638;2022-10-18T15:12:16;101956.47;;;23.25;49.96
28344;BME280;15597;50.914;6.638;2022-10-18T15:14:51;101968.72;;;23.11;50.41
28344;BME280;15597;50.914;6.638;2022-10-18T15:17:24;101956.19;;;22.96;50.67
28344;BME280;15597;50.914;6.638;2022-10-18T15:20:02;101956.06;;;22.81;50.84
28344;BME280;15597;50.914;6.638;2022-10-18T15:22:39;101964.38;;;22.75;51.19
28344;BME280;15597;50.914;6.638;2022-10-18T15:25:17;101960.59;;;22.61;51.56
28344;BME280;15597;50.914;6.638;2022-10-18T15:27:47;101956.75;;;22.67;51.74
28344;BME280;15597;50.914;6.638;2022-10-18T15:30:17;101962.03;;;22.69;51.80
28344;BME280;15597;50.914;6.638;2022-10-18T15:32:49;101958.63;;;22.65;51.53
28344;BME280;15597;50.914;6.638;2022-10-18T15:35:18;101964.06;;;22.64;51.96
28344;BME280;15597;50.914;6.638;2022-10-18T15:37:46;101956.75;;;22.67;51.78
28344;BME280;15597;50.914;6.638;2022-10-18T15:42:48;101966.31;;;22.71;51.50